Time;durP1;ratioP1;P1;durP2;ratioP2;P2;SDS_P1;SDS_P2;PMS_P1;PMS_P2;Temp;Humidity;BMP_temperature;BMP_pressure;BME280_temperature;BME280_humidity;BME280_pressure;Samples;Min_cycle;Max_cycle;Signal;HPM_P1;HPM_P2
2023/04/01 00:01:34;;;;;;;;;;;;;;;;;;4875020;28;20111;-69
2023/04/01 00:04:06;;;;;;;3.13;1.30;;;;;;;;;;4908716;28;19926;-69
2023/04/01 00:06:33;;;;;;;3.25;1.20;;;;;;;;;;4926207;28;21408;-70
2023/04/01 00:09:00;;;;;;;2.15;1.20;;;;;;;;;;4909607;28;20108;-69
2023/04/01 00:11:28;;;;;;;3.65;1.40;;;;;;;;;;4868751;29;20112;-70
2023/04/01 00:14:00;;;;;;;4.43;1.70;;;;;;;;;;4883062;29;20059;-69
2023/04/01 00:16:29;;;;;;;4.47;1.20;;;;;;;;;;4907260;28;20063;-69
2023/04/01 00:18:56;;;;;;;2.90;1.33;;;;;;;;;;4935320;28;20108;-69
2023/04/01 00:21:23;;;;;;;3.35;1.35;;;;;;;;;;4971814;28;20054;-69
2023/04/01 00:23:49;;;;;;;2.95;1.30;;;;;;;;;;4959323;28;20058;-69
2023/04/01 00:26:18;;;;;;;2.85;1.38;;;;;;;;;;4961041;28;20118;-70
2023/04/01 00:28:45;;;;;;;2.90;1.17;;;;;;;;;;4983068;28;20062;-69
2023/04/01 00:31:13;;;;;;;3.63;1.50;;;;;;;;;;4953074;28;20150;-69
2023/04/01 00:33:40;;;;;;;4.47;1.52;;;;;;;;;;5005687;28;20153;-69
2023/04/01 00:36:08;;;;;;;3.53;1.50;;;;;;;;;;4995257;28;20109;-70
2023/04/01 00:38:34;;;;;;;4.33;1.60;;;;;;;;;;4993484;28;20370;-69
2023/04/01 00:41:01;;;;;;;6.60;1.50;;;;;;;;;;4978990;28;20336;-70
2023/04/01 00:43:27;;;;;;;3.50;1.58;;;;;;;;;;4974263;28;20066;-71
2023/04/01 00:45:54;;;;;;;2.92;1.60;;;;;;;;;;4979604;28;20062;-69
2023/04/01 00:48:23;;;;;;;5.40;1.50;;;;;;;;;;4985507;28;20081;-69
2023/04/01 00:50:51;;;;;;;4.03;1.70;;;;;;;;;;4967768;28;20089;-69
2023/04/01 00:53:18;;;;;;;3.13;1.45;;;;;;;;;;4983357;28;20054;-70
2023/04/01 00:55:50;;;;;;;7.38;2.38;;;;;;;;;;4988885;28;20058;-70
2023/04/01 00:58:17;;;;;;;4.60;1.88;;;;;;;;;;4969756;28;20100;-69
2023/04/01 01:00:45;;;;;;;3.72;1.73;;;;;;;;;;4951862;28;20103;-71
2023/04/01 01:03:12;;;;;;;4.95;2.13;;;;;;;;;;4952318;28;20055;-70
2023/04/01 01:05:48;;;;;;;4.32;1.92;;;;;;;;;;4970793;28;20061;-70
2023/04/01 01:08:18;;;;;;;3.53;1.98;;;;;;;;;;4948561;28;20054;-70
2023/04/01 01:10:50;;;;;;;3.95;1.92;;;;;;;;;;4983855;28;20055;-70
2023/04/01 01:13:18;;;;;;;6.25;2.20;;;;;;;;;;4966948;28;20054;-69
2023/04/01 01:15:47;;;;;;;5.82;2.15;;;;;;;;;;4950944;28;20055;-70
2023/04/01 01:18:13;;;;;;;;;;;;;;;;;;4919516;28;20058;-69
2023/04/01 01:20:58;;;;;;;5.95;2.08;;;;;;;;;;4922468;28;19926;-69
2023/04/01 01:23:55;;;;;;;6.50;2.10;;;;;;;;;;4949234;28;20118;-70
2023/04/01 01:26:39;;;;;;;6.35;2.25;;;;;;;;;;4928112;28;20134;-69
2023/04/01 01:29:12;;;;;;;5.07;2.10;;;;;;;;;;4944410;28;20154;-69
2023/04/01 01:31:45;;;;;;;5.95;2.30;;;;;;;;;;4979361;28;20117;-69
2023/04/01 01:34:16;;;;;;;5.65;2.33;;;;;;;;;;4982845;28;20136;-69
2023/04/01 01:36:45;;;;;;;6.78;2.17;;;;;;;;;;4950109;28;20047;-70
2023/04/01 01:39:26;;;;;;;8.38;2.85;;;;;;;;;;4986448;28;20134;-68
2023/04/01 01:41:53;;;;;;;6.95;2.20;;;;;;;;;;4926797;28;20078;-69
2023/04/01 01:44:20;;;;;;;7.25;2.38;;;;;;;;;;4978744;28;20050;-69
2023/04/01 01:46:48;;;;;;;8.77;2.80;;;;;;;;;;4995174;28;20054;-69
2023/04/01 01:49:16;;;;;;;9.43;2.35;;;;;;;;;;4989032;28;20455;-69
2023/04/01 01:51:44;;;;;;;9.77;2.30;;;;;;;;;;4975817;28;20050;-69
2023/04/01 01:54:12;;;;;;;5.60;2.28;;;;;;;;;;4999021;28;20363;-70
2023/04/01 01:56:39;;;;;;;;;;;;;;;;;;4988088;28;20062;-69
2023/04/01 01:59:08;;;;;;;6.03;1.90;;;;;;;;;;4949739;28;19926;-69
2023/04/01 02:01:38;;;;;;;6.97;2.50;;;;;;;;;;4960513;28;20063;-69
2023/04/01 02:04:05;;;;;;;5.70;2.35;;;;;;;;;;4896444;28;20059;-69
2023/04/01 02:06:33;;;;;;;8.68;2.67;;;;;;;;;;4951698;28;20069;-69
2023/04/01 02:09:03;;;;;;;7.20;2.92;;;;;;;;;;4965032;28;20082;-69
2023/04/01 02:11:31;;;;;;;7.80;3.10;;;;;;;;;;4988022;28;20084;-70
2023/04/01 02:14:02;;;;;;;7.28;3.00;;;;;;;;;;4954382;28;20067;-69
2023/04/01 02:16:30;;;;;;;12.90;3.25;;;;;;;;;;4984604;28;20081;-70
2023/04/01 02:18:58;;;;;;;10.18;2.83;;;;;;;;;;5010973;28;20050;-70
2023/04/01 02:21:26;;;;;;;7.25;2.78;;;;;;;;;;4977202;28;20065;-69
2023/04/01 02:23:54;;;;;;;8.17;2.87;;;;;;;;;;4985981;28;20057;-69
2023/04/01 02:26:23;;;;;;;10.52;3.10;;;;;;;;;;4937184;28;20059;-70
2023/04/01 02:28:51;;;;;;;6.78;2.33;;;;;;;;;;4946682;28;20045;-70
2023/04/01 02:31:17;;;;;;;8.03;2.47;;;;;;;;;;4957029;28;20058;-69
2023/04/01 02:33:45;;;;;;;8.15;2.72;;;;;;;;;;5001058;28;20062;-70
2023/04/01 02:36:13;;;;;;;6.93;2.85;;;;;;;;;;5002572;28;20196;-70
2023/04/01 02:38:39;;;;;;;11.48;2.92;;;;;;;;;;4966317;28;20055;-69
2023/04/01 02:41:07;;;;;;;7.05;2.50;;;;;;;;;;4974818;28;20177;-69
2023/04/01 02:43:35;;;;;;;8.95;2.75;;;;;;;;;;4984157;28;20161;-70
2023/04/01 02:46:02;;;;;;;9.90;2.88;;;;;;;;;;4988447;28;20070;-70
2023/04/01 02:48:28;;;;;;;9.10;3.35;;;;;;;;;;5002143;28;20074;-70
2023/04/01 02:50:57;;;;;;;7.65;2.40;;;;;;;;;;5003339;28;20062;-70
2023/04/01 02:53:24;;;;;;;9.20;2.90;;;;;;;;;;4967818;28;20050;-71
2023/04/01 02:55:51;;;;;;;8.05;2.30;;;;;;;;;;4983645;28;20058;-70
2023/04/01 02:58:18;;;;;;;9.35;2.72;;;;;;;;;;4964803;28;20055;-69
2023/04/01 03:00:46;;;;;;;8.50;2.80;;;;;;;;;;4941718;28;20127;-70
2023/04/01 03:03:13;;;;;;;8.00;2.45;;;;;;;;;;4955150;28;20155;-70
2023/04/01 03:05:39;;;;;;;11.57;2.70;;;;;;;;;;4927361;28;20059;-70
2023/04/01 03:08:07;;;;;;;7.15;2.45;;;;;;;;;;4934271;28;20133;-70
2023/04/01 03:10:33;;;;;;;7.28;2.55;;;;;;;;;;4959131;28;20086;-69
2023/04/01 03:13:00;;;;;;;7.90;2.53;;;;;;;;;;4924213;28;20058;-68
2023/04/01 03:15:27;;;;;;;8.02;2.50;;;;;;;;;;4918382;28;20066;-69
2023/04/01 03:17:54;;;;;;;5.60;2.10;;;;;;;;;;4928446;28;20074;-71
2023/04/01 03:20:21;;;;;;;7.00;2.07;;;;;;;;;;4946691;28;20054;-69
2023/04/01 03:22:47;;;;;;;6.00;2.05;;;;;;;;;;4947419;28;20427;-69
2023/04/01 03:25:14;;;;;;;5.25;2.13;;;;;;;;;;4935392;28;20105;-69
2023/04/01 03:27:41;;;;;;;7.90;2.13;;;;;;;;;;4931974;28;20094;-70
2023/04/01 03:30:08;;;;;;;6.57;2.10;;;;;;;;;;4928447;28;20090;-68
2023/04/01 03:32:34;;;;;;;6.82;2.10;;;;;;;;;;4976952;28;20149;-69
2023/04/01 03:35:02;;;;;;;5.90;1.70;;;;;;;;;;4966184;28;20060;-70
2023/04/01 03:37:29;;;;;;;7.43;2.30;;;;;;;;;;4995064;28;20089;-69
2023/04/01 03:39:55;;;;;;;6.38;2.17;;;;;;;;;;4952883;28;20061;-70
2023/04/01 03:42:22;;;;;;;5.47;1.90;;;;;;;;;;4989392;28;20144;-69
2023/04/01 03:44:48;;;;;;;6.80;2.03;;;;;;;;;;4992514;28;20069;-70
2023/04/01 03:47:15;;;;;;;5.45;1.73;;;;;;;;;;4959802;28;20266;-69
2023/04/01 03:49:41;;;;;;;5.85;1.90;;;;;;;;;;4943094;28;20091;-69
2023/04/01 03:52:13;;;;;;;8.45;2.17;;;;;;;;;;4929287;28;20051;-69
2023/04/01 03:54:40;;;;;;;5.57;1.77;;;;;;;;;;4930194;28;20101;-70
2023/04/01 03:57:06;;;;;;;4.32;1.80;;;;;;;;;;4936301;28;20099;-69
2023/04/01 03:59:33;;;;;;;8.90;2.47;;;;;;;;;;4975713;28;20130;-69
2023/04/01 04:01:59;;;;;;;7.60;2.08;;;;;;;;;;4943798;28;20066;-70
2023/04/01 04:04:26;;;;;;;3.55;1.77;;;;;;;;;;4931534;28;20046;-69
2023/04/01 04:06:52;;;;;;;8.75;2.30;;;;;;;;;;4961627;28;20059;-70
2023/04/01 04:09:21;;;;;;;4.82;1.80;;;;;;;;;;4926673;28;20269;-70
2023/04/01 04:11:47;;;;;;;9.10;1.98;;;;;;;;;;4958136;28;20122;-69
2023/04/01 04:14:14;;;;;;;4.75;2.03;;;;;;;;;;4935887;28;20066;-70
2023/04/01 04:16:40;;;;;;;7.35;1.83;;;;;;;;;;4922036;28;20058;-69
2023/04/01 04:19:07;;;;;;;6.25;1.70;;;;;;;;;;4939703;28;20065;-70
2023/04/01 04:21:33;;;;;;;6.22;2.00;;;;;;;;;;4962527;28;20102;-69
2023/04/01 04:24:00;;;;;;;5.50;2.15;;;;;;;;;;4964112;28;20130;-69
2023/04/01 04:26:28;;;;;;;7.22;2.00;;;;;;;;;;4932209;28;20058;-69
2023/04/01 04:28:55;;;;;;;4.13;1.93;;;;;;;;;;4961114;28;20055;-69
2023/04/01 04:31:22;;;;;;;5.53;2.10;;;;;;;;;;4921321;28;20063;-69
2023/04/01 04:33:49;;;;;;;4.95;2.13;;;;;;;;;;4920399;28;20062;-69
2023/04/01 04:36:16;;;;;;;4.10;2.08;;;;;;;;;;4939442;28;20112;-69
2023/04/01 04:38:42;;;;;;;5.43;2.40;;;;;;;;;;4937379;28;20133;-69
2023/04/01 04:41:10;;;;;;;4.13;2.08;;;;;;;;;;4929424;28;20067;-69
2023/04/01 04:43:38;;;;;;;5.55;2.55;;;;;;;;;;4939306;28;20055;-69
2023/04/01 04:46:05;;;;;;;5.93;2.17;;;;;;;;;;4955201;28;20288;-69
2023/04/01 04:48:31;;;;;;;4.57;2.30;;;;;;;;;;4936245;28;20501;-70
2023/04/01 04:50:58;;;;;;;5.65;2.20;;;;;;;;;;4932166;28;20135;-70
2023/04/01 04:53:25;;;;;;;6.50;2.50;;;;;;;;;;4928658;28;21262;-68
2023/04/01 04:55:51;;;;;;;6.72;2.10;;;;;;;;;;4925497;28;20059;-69
2023/04/01 04:58:18;;;;;;;5.25;2.40;;;;;;;;;;4942617;28;20059;-70
2023/04/01 05:00:46;;;;;;;6.65;2.38;;;;;;;;;;4975141;28;20061;-70
2023/04/01 05:03:16;;;;;;;6.20;2.60;;;;;;;;;;4924866;28;20063;-69
2023/04/01 05:05:49;;;;;;;5.72;2.47;;;;;;;;;;4964276;28;20069;-69
2023/04/01 05:08:16;;;;;;;6.53;2.47;;;;;;;;;;4924772;28;20093;-69
2023/04/01 05:10:42;;;;;;;6.15;2.80;;;;;;;;;;4941105;28;20051;-69
2023/04/01 05:13:09;;;;;;;6.15;2.67;;;;;;;;;;4924147;28;20074;-69
2023/04/01 05:15:37;;;;;;;6.05;2.50;;;;;;;;;;4932505;28;20101;-69
2023/04/01 05:18:05;;;;;;;5.13;2.35;;;;;;;;;;4925718;28;20070;-69
2023/04/01 05:20:34;;;;;;;3.95;2.25;;;;;;;;;;4935987;28;20092;-69
2023/04/01 05:23:01;;;;;;;5.88;2.40;;;;;;;;;;4939076;28;20062;-69
2023/04/01 05:25:27;;;;;;;4.28;2.17;;;;;;;;;;4929511;28;20066;-70
2023/04/01 05:27:56;;;;;;;6.40;2.80;;;;;;;;;;4970590;28;20079;-69
2023/04/01 05:30:23;;;;;;;5.70;2.55;;;;;;;;;;4930273;28;20051;-69
2023/04/01 05:32:49;;;;;;;7.15;2.85;;;;;;;;;;4934399;28;20174;-69
2023/04/01 05:35:19;;;;;;;5.78;2.72;;;;;;;;;;4938308;28;20160;-69
2023/04/01 05:37:46;;;;;;;6.20;2.83;;;;;;;;;;4982941;28;20058;-70
2023/04/01 05:40:13;;;;;;;6.68;2.92;;;;;;;;;;4988444;28;20152;-69
2023/04/01 05:42:39;;;;;;;6.15;2.83;;;;;;;;;;5002298;28;20081;-69
2023/04/01 05:45:11;;;;;;;6.68;3.05;;;;;;;;;;4956518;28;20054;-69
2023/04/01 05:47:38;;;;;;;5.80;2.42;;;;;;;;;;4972295;28;20053;-70
2023/04/01 05:50:08;;;;;;;6.43;2.80;;;;;;;;;;4972356;28;20365;-70
2023/04/01 05:52:36;;;;;;;7.72;2.85;;;;;;;;;;4980065;28;20145;-70
2023/04/01 05:55:09;;;;;;;6.72;3.13;;;;;;;;;;5002447;28;20057;-70
2023/04/01 05:57:36;;;;;;;5.72;2.75;;;;;;;;;;4973063;28;20065;-70
2023/04/01 06:00:03;;;;;;;9.95;2.65;;;;;;;;;;4986144;28;20056;-70
2023/04/01 06:02:29;;;;;;;6.88;3.00;;;;;;;;;;5011636;28;20050;-70
2023/04/01 06:05:04;;;;;;;5.82;2.35;;;;;;;;;;4983607;28;20054;-70
2023/04/01 06:07:36;;;;;;;6.80;2.90;;;;;;;;;;4979498;28;20108;-70
2023/04/01 06:10:09;;;;;;;6.22;2.40;;;;;;;;;;5008026;28;20058;-69
2023/04/01 06:12:41;;;;;;;7.22;2.70;;;;;;;;;;4990146;28;20050;-70
2023/04/01 06:15:19;;;;;;;5.35;2.53;;;;;;;;;;4930563;28;20051;-70
2023/04/01 06:17:53;;;;;;;6.22;2.30;;;;;;;;;;4978927;28;20062;-70
2023/04/01 06:20:23;;;;;;;5.85;2.10;;;;;;;;;;4983963;28;20058;-69
2023/04/01 06:23:01;;;;;;;5.43;2.55;;;;;;;;;;4988235;28;20058;-70
2023/04/01 06:25:35;;;;;;;4.22;2.00;;;;;;;;;;4927344;28;21254;-71
2023/04/01 06:28:08;;;;;;;4.70;2.25;;;;;;;;;;4972877;28;20085;-69
2023/04/01 06:30:39;;;;;;;5.88;2.08;;;;;;;;;;4981032;28;20064;-70
2023/04/01 06:33:14;;;;;;;5.43;2.05;;;;;;;;;;4974342;28;20072;-69
2023/04/01 06:35:54;;;;;;;4.97;2.15;;;;;;;;;;4964331;28;20086;-69
2023/04/01 06:38:36;;;;;;;5.32;2.20;;;;;;;;;;4979376;28;20042;-69
2023/04/01 06:41:23;;;;;;;6.00;2.00;;;;;;;;;;4977886;28;20038;-71
2023/04/01 06:43:59;;;;;;;3.97;1.65;;;;;;;;;;4908066;28;20061;-69
2023/04/01 06:46:32;;;;;;;4.07;1.77;;;;;;;;;;4872461;28;20065;-69
2023/04/01 06:49:06;;;;;;;3.92;1.67;;;;;;;;;;4935132;28;20054;-69
2023/04/01 06:51:36;;;;;;;4.93;2.05;;;;;;;;;;4945820;28;20123;-69
2023/04/01 06:54:06;;;;;;;4.57;1.83;;;;;;;;;;4952423;28;20083;-69
2023/04/01 06:56:33;;;;;;;4.10;1.75;;;;;;;;;;4960827;28;20059;-69
2023/04/01 06:59:06;;;;;;;3.22;1.48;;;;;;;;;;4941686;28;20199;-70
2023/04/01 07:01:35;;;;;;;4.38;1.98;;;;;;;;;;4978970;28;20050;-70
2023/04/01 07:04:06;;;;;;;3.40;1.67;;;;;;;;;;4966057;28;20161;-70
2023/04/01 07:06:33;;;;;;;4.18;1.85;;;;;;;;;;4964983;28;20062;-70
2023/04/01 07:09:07;;;;;;;4.43;1.80;;;;;;;;;;4999984;28;20081;-70
2023/04/01 07:11:38;;;;;;;4.57;1.60;;;;;;;;;;4971300;28;20062;-70
2023/04/01 07:14:14;;;;;;;4.03;1.52;;;;;;;;;;4983231;28;20049;-70
2023/04/01 07:16:46;;;;;;;3.17;1.50;;;;;;;;;;4935108;28;20058;-69
2023/04/01 07:19:15;;;;;;;4.55;1.70;;;;;;;;;;4973499;28;20057;-70
2023/04/01 07:21:44;;;;;;;5.35;1.90;;;;;;;;;;4960000;28;20118;-70
2023/04/01 07:24:15;;;;;;;4.00;1.90;;;;;;;;;;4949639;28;20062;-70
2023/04/01 07:26:42;;;;;;;4.00;1.48;;;;;;;;;;4953287;28;20058;-70
2023/04/01 07:29:14;;;;;;;3.50;1.50;;;;;;;;;;4922605;28;20051;-70
2023/04/01 07:31:51;;;;;;;4.45;1.80;;;;;;;;;;4967527;28;20054;-70
2023/04/01 07:34:27;;;;;;;4.35;1.73;;;;;;;;;;4953210;28;20054;-70
2023/04/01 07:37:02;;;;;;;4.47;1.58;;;;;;;;;;4952761;28;20058;-71
2023/04/01 07:39:34;;;;;;;4.30;1.98;;;;;;;;;;4952043;28;20054;-71
2023/04/01 07:42:06;;;;;;;5.00;1.92;;;;;;;;;;4961888;28;20058;-71
2023/04/01 07:44:40;;;;;;;4.18;2.00;;;;;;;;;;4936035;28;20059;-70
2023/04/01 07:47:21;;;;;;;3.28;1.50;;;;;;;;;;4959037;28;20067;-69
2023/04/01 07:49:52;;;;;;;3.63;1.70;;;;;;;;;;4946074;28;20099;-70
2023/04/01 07:52:22;;;;;;;2.85;1.20;;;;;;;;;;4951819;28;20097;-69
2023/04/01 07:54:54;;;;;;;3.63;1.58;;;;;;;;;;4930921;28;20175;-70
2023/04/01 07:57:23;;;;;;;3.22;1.50;;;;;;;;;;4950938;28;20238;-70
2023/04/01 07:59:57;;;;;;;5.88;1.95;;;;;;;;;;4942413;28;20051;-71
2023/04/01 08:02:40;;;;;;;3.08;1.27;;;;;;;;;;4949753;28;20050;-69
2023/04/01 08:05:14;;;;;;;3.33;1.50;;;;;;;;;;4955261;28;20058;-70
2023/04/01 08:07:45;;;;;;;3.42;1.42;;;;;;;;;;4962984;28;20066;-70
2023/04/01 08:10:14;;;;;;;3.72;1.30;;;;;;;;;;4957731;28;20070;-69
2023/04/01 08:12:49;;;;;;;3.00;1.40;;;;;;;;;;4957101;28;20063;-70
2023/04/01 08:15:21;;;;;;;4.13;1.60;;;;;;;;;;4916235;28;20384;-69
2023/04/01 08:17:52;;;;;;;2.08;1.10;;;;;;;;;;4966422;28;20074;-69
2023/04/01 08:20:27;;;;;;;3.00;1.40;;;;;;;;;;4931636;28;20058;-69
2023/04/01 08:22:58;;;;;;;4.18;1.67;;;;;;;;;;4937245;28;20062;-70
2023/04/01 08:25:26;;;;;;;2.95;1.50;;;;;;;;;;4971412;28;20059;-72
2023/04/01 08:27:55;;;;;;;4.43;1.58;;;;;;;;;;4945967;28;20058;-71
2023/04/01 08:30:21;;;;;;;;;;;;;;;;;;4947718;28;20090;-70
2023/04/01 08:32:53;;;;;;;4.93;1.33;;;;;;;;;;4971426;28;19922;-71
2023/04/01 08:35:23;;;;;;;3.80;1.45;;;;;;;;;;4962068;28;20050;-71
2023/04/01 08:37:51;;;;;;;4.70;1.80;;;;;;;;;;4943067;28;20063;-70
2023/04/01 08:40:35;;;;;;;3.35;1.45;;;;;;;;;;4942042;28;20141;-70
2023/04/01 08:43:07;;;;;;;4.38;1.58;;;;;;;;;;4938747;28;20063;-70
2023/04/01 08:45:42;;;;;;;3.50;1.60;;;;;;;;;;4932514;28;20049;-69
2023/04/01 08:48:25;;;;;;;5.25;1.40;;;;;;;;;;4971229;28;20053;-70
2023/04/01 08:51:00;;;;;;;4.95;1.55;;;;;;;;;;4988963;28;20046;-71
2023/04/01 08:53:32;;;;;;;4.47;1.80;;;;;;;;;;4982645;28;20054;-70
2023/04/01 08:56:08;;;;;;;3.38;1.40;;;;;;;;;;4946418;28;20065;-70
2023/04/01 08:58:54;;;;;;;4.60;1.75;;;;;;;;;;4939595;28;20161;-69
2023/04/01 09:01:27;;;;;;;2.97;1.45;;;;;;;;;;4925275;28;20058;-70
2023/04/01 09:04:04;;;;;;;3.22;1.58;;;;;;;;;;4971766;28;20057;-71
2023/04/01 09:06:34;;;;;;;3.67;1.38;;;;;;;;;;4978590;28;20246;-70
2023/04/01 09:09:10;;;;;;;4.10;1.38;;;;;;;;;;4968301;28;20058;-70
2023/04/01 09:11:51;;;;;;;3.50;1.45;;;;;;;;;;4973651;28;20078;-70
2023/04/01 09:14:45;;;;;;;2.97;1.30;;;;;;;;;;4976939;28;20058;-70
2023/04/01 09:17:38;;;;;;;3.88;1.75;;;;;;;;;;4925247;28;20058;-70
2023/04/01 09:20:18;;;;;;;4.07;1.67;;;;;;;;;;4944570;28;20100;-70
2023/04/01 09:23:05;;;;;;;3.03;1.35;;;;;;;;;;4986199;28;20060;-70
2023/04/01 09:25:48;;;;;;;2.97;1.40;;;;;;;;;;4988565;28;20080;-70
2023/04/01 09:28:18;;;;;;;4.13;1.92;;;;;;;;;;4957488;28;20062;-69
2023/04/01 09:31:10;;;;;;;4.57;1.70;;;;;;;;;;4960375;28;20055;-71
2023/04/01 09:33:58;;;;;;;4.93;1.98;;;;;;;;;;4928597;28;20054;-72
2023/04/01 09:36:41;;;;;;;3.45;1.85;;;;;;;;;;4917785;28;20059;-69
2023/04/01 09:39:20;;;;;;;3.85;1.80;;;;;;;;;;4922951;28;20141;-70
2023/04/01 09:41:58;;;;;;;6.13;2.75;;;;;;;;;;4939177;28;20073;-70
2023/04/01 09:49:35;;;;;;;5.97;2.80;;;;;;;;;;4857662;29;20194;-70
2023/04/01 09:52:19;;;;;;;;;;;;;;;;;;;;;
2023/04/01 09:54:54;;;;;;;11.38;2.70;;;;;;;;;;4885977;28;20154;-67
2023/04/01 09:57:45;;;;;;;6.82;2.95;;;;;;;;;;4873842;28;20079;-70
2023/04/01 10:00:28;;;;;;;6.07;2.63;;;;;;;;;;4936671;28;20132;-69
2023/04/01 10:03:11;;;;;;;6.78;2.78;;;;;;;;;;4956603;28;20070;-69
2023/04/01 10:06:05;;;;;;;6.85;2.85;;;;;;;;;;4943881;28;20162;-70
2023/04/01 10:08:46;;;;;;;6.35;2.58;;;;;;;;;;4952665;28;20070;-69
2023/04/01 10:11:28;;;;;;;6.78;2.75;;;;;;;;;;4964456;28;20146;-70
2023/04/01 10:14:08;;;;;;;6.10;2.65;;;;;;;;;;4953140;28;20046;-70
2023/04/01 10:16:45;;;;;;;6.57;2.80;;;;;;;;;;4982394;28;20058;-70
2023/04/01 10:19:25;;;;;;;5.65;2.50;;;;;;;;;;4930694;28;20055;-70
2023/04/01 10:22:02;;;;;;;6.13;2.88;;;;;;;;;;4949256;28;20059;-67
2023/04/01 10:24:41;;;;;;;5.30;2.72;;;;;;;;;;4932047;28;20163;-69
2023/04/01 10:27:17;;;;;;;6.60;2.75;;;;;;;;;;4926362;28;20134;-70
2023/04/01 10:29:53;;;;;;;6.70;3.00;;;;;;;;;;4939092;28;20065;-69
2023/04/01 10:32:38;;;;;;;6.57;2.97;;;;;;;;;;4992091;28;20054;-68
2023/04/01 10:35:21;;;;;;;7.40;2.83;;;;;;;;;;4956228;28;20054;-70
2023/04/01 10:38:06;;;;;;;6.35;2.88;;;;;;;;;;5003659;28;20082;-68
2023/04/01 10:40:43;;;;;;;6.18;2.50;;;;;;;;;;4960788;28;20057;-69
2023/04/01 10:43:31;;;;;;;6.18;2.88;;;;;;;;;;4957178;28;20062;-68
2023/04/01 10:46:15;;;;;;;6.80;3.42;;;;;;;;;;4956165;28;20069;-67
2023/04/01 10:49:09;;;;;;;7.88;3.03;;;;;;;;;;4946197;28;20063;-71
2023/04/01 10:51:54;;;;;;;9.68;3.53;;;;;;;;;;4981381;28;20062;-71
2023/04/01 10:54:39;;;;;;;6.82;2.97;;;;;;;;;;4964849;28;20089;-70
2023/04/01 10:57:23;;;;;;;7.93;3.05;;;;;;;;;;4928181;28;20169;-69
2023/04/01 11:00:10;;;;;;;6.18;2.72;;;;;;;;;;4973771;28;20066;-70
2023/04/01 11:02:59;;;;;;;7.88;3.70;;;;;;;;;;4950064;28;20055;-66
2023/04/01 11:05:52;;;;;;;6.75;2.95;;;;;;;;;;4956418;28;20050;-69
2023/04/01 11:08:36;;;;;;;7.32;3.10;;;;;;;;;;4929817;28;20057;-70
2023/04/01 11:11:38;;;;;;;6.50;3.28;;;;;;;;;;4904695;28;20064;-73
2023/04/01 11:14:25;;;;;;;8.50;3.38;;;;;;;;;;4900892;28;20060;-70
2023/04/01 11:17:09;;;;;;;6.65;2.83;;;;;;;;;;4871277;29;20055;-68
2023/04/01 11:19:51;;;;;;;6.35;2.58;;;;;;;;;;4886577;28;20054;-68
2023/04/01 11:22:31;;;;;;;6.72;3.25;;;;;;;;;;4902148;28;20070;-70
2023/04/01 11:25:22;;;;;;;6.50;2.88;;;;;;;;;;4912390;28;20059;-71
2023/04/01 11:28:06;;;;;;;7.45;3.28;;;;;;;;;;4889061;29;20137;-71
2023/04/01 11:30:42;;;;;;;6.18;2.65;;;;;;;;;;4897304;29;20098;-74
2023/04/01 11:33:16;;;;;;;6.35;2.85;;;;;;;;;;4891085;28;20055;-69
2023/04/01 11:39:05;;;;;;;7.47;2.67;;;;;;;;;;4915218;29;20055;-71
2023/04/01 11:41:43;;;;;;;5.47;2.40;;;;;;;;;;4889883;28;20094;-70
2023/04/01 11:44:29;;;;;;;6.00;2.53;;;;;;;;;;4868877;29;21012;-71
2023/04/01 11:50:13;;;;;;;6.53;2.60;;;;;;;;;;5021504;27;20556;-73
2023/04/01 11:53:18;;;;;;;6.63;2.58;;;;;;;;;;4969314;28;20105;-74
2023/04/01 12:04:11;;;;;;;5.35;2.50;;;;;;;;;;5049581;27;20136;-73
2023/04/01 12:06:48;;;;;;;4.07;2.08;;;;;;;;;;4962421;28;20057;-73
2023/04/01 12:09:32;;;;;;;5.70;2.33;;;;;;;;;;4959133;28;20053;-73
2023/04/01 12:12:09;;;;;;;5.43;2.53;;;;;;;;;;4948802;28;20050;-69
2023/04/01 12:22:28;;;;;;;5.20;2.10;;;;;;;;;;4838831;27;4608381;-71
2023/04/01 12:41:18;;;;;;;4.55;1.83;;;;;;;;;;4995399;27;20431;-69
2023/04/01 12:44:18;;;;;;;5.20;2.13;;;;;;;;;;4976058;28;20054;-72
2023/04/01 12:47:01;;;;;;;3.88;2.10;;;;;;;;;;4925840;28;20061;-71
2023/04/01 12:50:02;;;;;;;4.55;1.90;;;;;;;;;;4947741;28;20063;-71
2023/04/01 12:52:47;;;;;;;6.32;2.05;;;;;;;;;;4983191;28;20045;-71
2023/04/01 12:55:30;;;;;;;5.00;1.88;;;;;;;;;;4945074;28;20054;-69
2023/04/01 13:04:04;;;;;;;4.32;1.80;;;;;;;;;;4948942;28;20073;-71
2023/04/01 13:09:34;;;;;;;4.07;1.70;;;;;;;;;;4867212;28;20049;-70
2023/04/01 13:12:23;;;;;;;4.15;1.60;;;;;;;;;;4952319;28;20062;-70
2023/04/01 13:19:47;;;;;;;3.03;1.57;;;;;;;;;;4863716;29;20056;-70
2023/04/01 13:22:27;;;;;;;3.10;1.58;;;;;;;;;;4849812;29;20397;-73
2023/04/01 13:33:08;;;;;;;2.13;1.27;;;;;;;;;;5003088;27;2525165;-71
2023/04/01 13:40:47;;;;;;;4.05;1.60;;;;;;;;;;4864119;29;20047;-69
2023/04/01 13:43:17;;;;;;;2.90;1.50;;;;;;;;;;4908522;28;20055;-73
2023/04/01 13:46:00;;;;;;;3.53;1.48;;;;;;;;;;4995119;28;20057;-71
2023/04/01 13:48:53;;;;;;;3.50;1.58;;;;;;;;;;4955751;28;20084;-68
2023/04/01 13:51:37;;;;;;;;;;;;;;;;;;;;;
2023/04/01 13:54:24;;;;;;;3.00;1.48;;;;;;;;;;4965345;28;20077;-71
2023/04/01 13:56:58;;;;;;;3.15;1.58;;;;;;;;;;4959861;28;20084;-71
2023/04/01 13:59:40;;;;;;;4.22;2.00;;;;;;;;;;4980997;28;20111;-70
2023/04/01 14:02:15;;;;;;;4.55;1.92;;;;;;;;;;5059611;28;20064;-70
2023/04/01 14:04:47;;;;;;;3.92;2.00;;;;;;;;;;5072798;28;20059;-73
2023/04/01 14:07:20;;;;;;;4.78;1.70;;;;;;;;;;5063424;28;20119;-71
2023/04/01 14:09:52;;;;;;;3.88;1.90;;;;;;;;;;5046771;28;20099;-69
2023/04/01 14:12:29;;;;;;;4.88;2.05;;;;;;;;;;5063805;28;20052;-69
2023/04/01 14:15:19;;;;;;;3.78;1.98;;;;;;;;;;5080864;28;20062;-68
2023/04/01 14:17:51;;;;;;;3.00;1.63;;;;;;;;;;5088458;28;20132;-70
2023/04/01 14:20:41;;;;;;;3.40;1.70;;;;;;;;;;5050472;28;20055;-69
2023/04/01 14:23:23;;;;;;;4.05;2.00;;;;;;;;;;5023001;28;20052;-70
2023/04/01 14:33:55;;;;;;;4.85;1.92;;;;;;;;;;4883722;28;20110;-71
2023/04/01 14:36:43;;;;;;;4.00;2.05;;;;;;;;;;4915994;28;20047;-70
2023/04/01 14:58:28;;;;;;;;;;;;;;;;;;;;;
2023/04/01 15:06:38;;;;;;;4.75;1.92;;;;;;;;;;4962987;27;20434;-71
2023/04/01 15:09:14;;;;;;;5.40;2.05;;;;;;;;;;4900518;28;20061;-70
2023/04/01 15:11:48;;;;;;;4.35;1.98;;;;;;;;;;4964845;28;20050;-70
2023/04/01 15:14:30;;;;;;;4.38;1.77;;;;;;;;;;4973680;28;20064;-70
2023/04/01 15:17:09;;;;;;;5.40;2.00;;;;;;;;;;4950394;28;20209;-71
2023/04/01 15:19:42;;;;;;;6.43;2.47;;;;;;;;;;4937800;28;20050;-70
2023/04/01 15:22:26;;;;;;;3.97;1.92;;;;;;;;;;4948410;28;20137;-71
2023/04/01 15:24:57;;;;;;;3.85;1.83;;;;;;;;;;4952270;28;20117;-70
2023/04/01 15:27:32;;;;;;;4.75;2.00;;;;;;;;;;4938324;28;20051;-72
2023/04/01 15:30:22;;;;;;;4.15;1.77;;;;;;;;;;4937028;28;20136;-72
2023/04/01 15:32:54;;;;;;;4.03;1.95;;;;;;;;;;4971480;28;20070;-70
2023/04/01 15:35:28;;;;;;;5.13;1.98;;;;;;;;;;4969437;28;20050;-69
2023/04/01 15:38:00;;;;;;;4.07;1.88;;;;;;;;;;4962641;28;20066;-69
2023/04/01 15:40:30;;;;;;;3.55;1.83;;;;;;;;;;4919146;28;20054;-71
2023/04/01 15:43:06;;;;;;;3.67;1.52;;;;;;;;;;4938678;28;20050;-68
2023/04/01 15:45:47;;;;;;;2.90;1.50;;;;;;;;;;4988353;28;20165;-72
2023/04/01 15:55:58;;;;;;;4.60;2.03;;;;;;;;;;4839890;29;20048;-73
2023/04/01 15:58:33;;;;;;;4.25;1.85;;;;;;;;;;4943872;28;20058;-73
2023/04/01 16:01:17;;;;;;;4.05;1.70;;;;;;;;;;4936508;28;20058;-74
2023/04/01 16:03:48;;;;;;;5.25;1.92;;;;;;;;;;4945307;28;20057;-73
2023/04/01 16:06:25;;;;;;;3.90;1.88;;;;;;;;;;4953430;28;20054;-74
2023/04/01 16:09:17;;;;;;;4.63;1.92;;;;;;;;;;4917790;28;20046;-72
2023/04/01 16:11:55;;;;;;;4.38;1.90;;;;;;;;;;4924392;28;20054;-72
2023/04/01 16:14:27;;;;;;;4.07;2.05;;;;;;;;;;4901044;28;20123;-72
2023/04/01 16:21:47;;;;;;;3.50;1.83;;;;;;;;;;4903584;29;20073;-73
2023/04/01 16:32:04;;;;;;;4.18;1.92;;;;;;;;;;5071874;27;20466;-70
2023/04/01 16:34:44;;;;;;;4.30;1.80;;;;;;;;;;5033814;28;20057;-69
2023/04/01 16:37:16;;;;;;;2.55;1.35;;;;;;;;;;5051384;28;20072;-70
2023/04/01 16:39:51;;;;;;;3.10;1.70;;;;;;;;;;5055718;27;20061;-71
2023/04/01 16:42:30;;;;;;;5.30;2.10;;;;;;;;;;5083232;28;20052;-70
2023/04/01 16:47:47;;;;;;;3.33;1.83;;;;;;;;;;5060848;28;20052;-70
2023/04/01 16:50:18;;;;;;;3.10;1.80;;;;;;;;;;5046112;27;20043;-69
2023/04/01 16:52:53;;;;;;;5.00;1.80;;;;;;;;;;5102212;27;20047;-70
2023/04/01 16:55:28;;;;;;;4.10;2.05;;;;;;;;;;5048665;27;20128;-70
2023/04/01 16:57:58;;;;;;;3.55;1.80;;;;;;;;;;5041293;28;20052;-70
2023/04/01 17:00:26;;;;;;;3.28;1.90;;;;;;;;;;5042184;27;20051;-68
2023/04/01 17:05:46;;;;;;;4.18;1.70;;;;;;;;;;5038634;28;20060;-74
2023/04/01 17:08:19;;;;;;;2.67;1.52;;;;;;;;;;5005855;28;20068;-72
2023/04/01 17:13:26;;;;;;;3.45;1.55;;;;;;;;;;4909336;28;20270;-69
2023/04/01 17:15:59;;;;;;;4.18;2.00;;;;;;;;;;4972335;28;20856;-69
2023/04/01 17:18:33;;;;;;;2.30;1.40;;;;;;;;;;4985135;28;20053;-69
2023/04/01 17:21:08;;;;;;;3.05;1.77;;;;;;;;;;5004171;28;20061;-69
2023/04/01 17:23:36;;;;;;;2.72;1.52;;;;;;;;;;5012685;28;20310;-70
2023/04/01 17:26:15;;;;;;;3.20;1.83;;;;;;;;;;4986410;28;20123;-69
2023/04/01 17:29:06;;;;;;;4.50;1.90;;;;;;;;;;5021328;28;20052;-69
2023/04/01 17:31:38;;;;;;;5.13;2.05;;;;;;;;;;5000229;28;20053;-72
2023/04/01 17:34:36;;;;;;;3.17;1.77;;;;;;;;;;4999907;28;20101;-69
2023/04/01 17:37:14;;;;;;;3.30;1.80;;;;;;;;;;5046446;28;20079;-70